sensor_id;sensor_type;location;lat;lon;timestamp;pressure;altitude;pressure_sealevel;temperature;humidity
64616;BME280;51027;42.162;24.754;2023-11-19T00:00:09;99449.59;;;6.51;75.72
64616;BME280;51027;42.162;24.754;2023-11-19T00:02:41;99464.31;;;6.55;75.97
64616;BME280;51027;42.162;24.754;2023-11-19T00:05:08;99460.84;;;6.54;76.08
64616;BME280;51027;42.162;24.754;2023-11-19T00:07:37;99446.34;;;6.41;76.16
64616;BME280;51027;42.162;24.754;2023-11-19T00:10:11;99448.34;;;6.66;75.86
64616;BME280;51027;42.162;24.754;2023-11-19T00:12:38;99484.16;;;6.62;76.57
64616;BME280;51027;42.162;24.754;2023-11-19T00:15:05;99472.78;;;6.64;76.43
64616;BME280;51027;42.162;24.754;2023-11-19T00:17:31;99447.00;;;6.49;76.76
64616;BME280;51027;42.162;24.754;2023-11-19T00:19:57;99461.13;;;6.44;76.03
64616;BME280;51027;42.162;24.754;2023-11-19T00:22:22;99469.59;;;6.52;75.43
64616;BME280;51027;42.162;24.754;2023-11-19T00:24:48;99463.28;;;6.60;75.48
64616;BME280;51027;42.162;24.754;2023-11-19T00:27:13;99469.47;;;6.58;74.90
64616;BME280;51027;42.162;24.754;2023-11-19T00:29:40;99476.38;;;6.60;74.93
64616;BME280;51027;42.162;24.754;2023-11-19T00:32:05;99472.28;;;6.50;75.16
64616;BME280;51027;42.162;24.754;2023-11-19T00:34:31;99476.78;;;6.45;75.62
64616;BME280;51027;42.162;24.754;2023-11-19T00:36:57;99495.09;;;6.45;75.78
64616;BME280;51027;42.162;24.754;2023-11-19T00:39:22;99449.69;;;6.14;75.76
64616;BME280;51027;42.162;24.754;2023-11-19T00:41:48;99441.56;;;6.24;75.69
64616;BME280;51027;42.162;24.754;2023-11-19T00:44:13;99494.91;;;6.51;76.34
64616;BME280;51027;42.162;24.754;2023-11-19T00:46:39;99497.47;;;6.54;76.23
64616;BME280;51027;42.162;24.754;2023-11-19T00:49:05;99490.59;;;6.50;76.28
64616;BME280;51027;42.162;24.754;2023-11-19T00:51:30;99500.03;;;6.56;76.48
64616;BME280;51027;42.162;24.754;2023-11-19T00:53:57;99489.00;;;6.45;76.74
64616;BME280;51027;42.162;24.754;2023-11-19T00:56:22;99493.25;;;6.49;76.92
64616;BME280;51027;42.162;24.754;2023-11-19T00:58:48;99490.75;;;6.44;77.12
64616;BME280;51027;42.162;24.754;2023-11-19T01:01:13;99501.91;;;6.51;77.40
64616;BME280;51027;42.162;24.754;2023-11-19T01:03:39;99477.16;;;6.30;77.74
64616;BME280;51027;42.162;24.754;2023-11-19T01:06:05;99492.66;;;6.38;78.04
64616;BME280;51027;42.162;24.754;2023-11-19T01:08:30;99501.50;;;6.33;78.36
64616;BME280;51027;42.162;24.754;2023-11-19T01:10:59;99494.47;;;6.35;78.25
64616;BME280;51027;42.162;24.754;2023-11-19T01:13:25;99492.75;;;6.34;78.05
64616;BME280;51027;42.162;24.754;2023-11-19T01:15:50;99500.59;;;6.33;78.30
64616;BME280;51027;42.162;24.754;2023-11-19T01:18:15;99482.56;;;6.22;78.52
64616;BME280;51027;42.162;24.754;2023-11-19T01:20:41;99492.72;;;6.36;78.33
64616;BME280;51027;42.162;24.754;2023-11-19T01:23:07;99511.50;;;6.50;78.23
64616;BME280;51027;42.162;24.754;2023-11-19T01:25:33;99503.44;;;6.25;78.55
64616;BME280;51027;42.162;24.754;2023-11-19T01:27:59;99511.16;;;6.30;78.36
64616;BME280;51027;42.162;24.754;2023-11-19T01:30:24;99520.53;;;6.39;78.59
64616;BME280;51027;42.162;24.754;2023-11-19T01:32:50;99520.72;;;6.31;78.98
64616;BME280;51027;42.162;24.754;2023-11-19T01:35:16;99507.81;;;6.25;78.81
64616;BME280;51027;42.162;24.754;2023-11-19T01:37:41;99508.53;;;6.30;79.41
64616;BME280;51027;42.162;24.754;2023-11-19T01:40:07;99519.50;;;6.46;79.32
64616;BME280;51027;42.162;24.754;2023-11-19T01:42:37;99524.16;;;6.33;79.74
64616;BME280;51027;42.162;24.754;2023-11-19T01:45:04;99505.94;;;6.30;79.97
64616;BME280;51027;42.162;24.754;2023-11-19T01:47:32;99506.00;;;6.27;79.71
64616;BME280;51027;42.162;24.754;2023-11-19T01:49:58;99501.72;;;6.24;80.12
64616;BME280;51027;42.162;24.754;2023-11-19T01:52:25;99476.53;;;6.20;80.16
64616;BME280;51027;42.162;24.754;2023-11-19T01:54:52;99503.22;;;6.33;80.09
64616;BME280;51027;42.162;24.754;2023-11-19T01:57:20;99501.91;;;6.17;80.17
64616;BME280;51027;42.162;24.754;2023-11-19T01:59:49;99516.56;;;6.24;80.55
64616;BME280;51027;42.162;24.754;2023-11-19T02:02:15;99520.00;;;6.26;80.35
64616;BME280;51027;42.162;24.754;2023-11-19T02:04:41;99519.03;;;6.28;80.48
64616;BME280;51027;42.162;24.754;2023-11-19T02:07:07;99519.16;;;6.24;80.86
64616;BME280;51027;42.162;24.754;2023-11-19T02:09:33;99523.50;;;6.25;80.98
64616;BME280;51027;42.162;24.754;2023-11-19T02:11:58;99514.22;;;6.12;81.45
64616;BME280;51027;42.162;24.754;2023-11-19T02:14:25;99523.53;;;6.23;81.50
64616;BME280;51027;42.162;24.754;2023-11-19T02:16:51;99519.16;;;6.24;81.37
64616;BME280;51027;42.162;24.754;2023-11-19T02:19:19;99520.09;;;6.21;81.73
64616;BME280;51027;42.162;24.754;2023-11-19T02:21:45;99514.97;;;6.17;81.74
64616;BME280;51027;42.162;24.754;2023-11-19T02:24:12;99524.44;;;6.21;81.25
64616;BME280;51027;42.162;24.754;2023-11-19T02:29:09;99532.56;;;6.10;81.49
64616;BME280;51027;42.162;24.754;2023-11-19T02:31:35;99522.19;;;6.07;81.35
64616;BME280;51027;42.162;24.754;2023-11-19T02:34:01;99493.84;;;5.87;81.07
64616;BME280;51027;42.162;24.754;2023-11-19T02:36:27;99532.63;;;6.07;80.80
64616;BME280;51027;42.162;24.754;2023-11-19T02:38:53;99530.63;;;6.18;80.44
64616;BME280;51027;42.162;24.754;2023-11-19T02:41:18;99534.00;;;6.22;80.01
64616;BME280;51027;42.162;24.754;2023-11-19T02:43:44;99510.78;;;6.10;79.89
64616;BME280;51027;42.162;24.754;2023-11-19T02:46:09;99517.91;;;6.04;80.07
64616;BME280;51027;42.162;24.754;2023-11-19T02:48:36;99546.81;;;6.32;79.39
64616;BME280;51027;42.162;24.754;2023-11-19T02:51:02;99532.25;;;6.24;78.92
64616;BME280;51027;42.162;24.754;2023-11-19T02:53:34;99547.78;;;6.30;78.79
64616;BME280;51027;42.162;24.754;2023-11-19T02:56:00;99537.34;;;6.28;78.36
64616;BME280;51027;42.162;24.754;2023-11-19T02:58:37;99547.91;;;6.25;78.50
64616;BME280;51027;42.162;24.754;2023-11-19T03:01:03;99539.06;;;6.29;78.42
64616;BME280;51027;42.162;24.754;2023-11-19T03:03:38;99519.44;;;6.12;78.65
64616;BME280;51027;42.162;24.754;2023-11-19T03:06:06;99538.50;;;6.17;78.52
64616;BME280;51027;42.162;24.754;2023-11-19T03:08:34;99538.13;;;6.32;78.63
64616;BME280;51027;42.162;24.754;2023-11-19T03:11:00;99523.56;;;6.22;78.53
64616;BME280;51027;42.162;24.754;2023-11-19T03:13:25;99528.78;;;6.22;78.32
64616;BME280;51027;42.162;24.754;2023-11-19T03:15:52;99521.66;;;6.28;78.46
64616;BME280;51027;42.162;24.754;2023-11-19T03:18:19;99534.00;;;6.22;77.72
64616;BME280;51027;42.162;24.754;2023-11-19T03:20:46;99510.78;;;6.10;77.99
64616;BME280;51027;42.162;24.754;2023-11-19T03:23:12;99498.72;;;6.04;77.90
64616;BME280;51027;42.162;24.754;2023-11-19T03:25:38;99537.63;;;6.18;77.84
64616;BME280;51027;42.162;24.754;2023-11-19T03:28:04;99539.19;;;6.25;77.54
64616;BME280;51027;42.162;24.754;2023-11-19T03:30:30;99534.88;;;6.22;77.59
64616;BME280;51027;42.162;24.754;2023-11-19T03:32:56;99522.03;;;6.13;77.87
64616;BME280;51027;42.162;24.754;2023-11-19T03:35:23;99460.97;;;5.78;77.50
64616;BME280;51027;42.162;24.754;2023-11-19T03:37:49;99531.38;;;6.23;77.45
64616;BME280;51027;42.162;24.754;2023-11-19T03:40:15;99526.13;;;6.25;77.32
64616;BME280;51027;42.162;24.754;2023-11-19T03:42:40;99532.28;;;6.21;77.31
64616;BME280;51027;42.162;24.754;2023-11-19T03:45:07;99526.38;;;6.13;77.92
64616;BME280;51027;42.162;24.754;2023-11-19T03:47:35;99473.13;;;5.79;78.13
64616;BME280;51027;42.162;24.754;2023-11-19T03:50:01;99517.91;;;6.04;78.37
64616;BME280;51027;42.162;24.754;2023-11-19T03:52:27;99509.25;;;6.01;78.57
64616;BME280;51027;42.162;24.754;2023-11-19T03:54:54;99513.69;;;5.97;78.54
64616;BME280;51027;42.162;24.754;2023-11-19T03:57:21;99512.94;;;5.92;78.93
64616;BME280;51027;42.162;24.754;2023-11-19T03:59:46;99531.75;;;6.08;79.39
64616;BME280;51027;42.162;24.754;2023-11-19T04:02:12;99514.72;;;5.89;79.99
64616;BME280;51027;42.162;24.754;2023-11-19T04:04:37;99505.53;;;5.72;80.68
64616;BME280;51027;42.162;24.754;2023-11-19T04:07:05;99546.13;;;5.87;80.81
64616;BME280;51027;42.162;24.754;2023-11-19T04:09:31;99542.66;;;5.87;80.56
64616;BME280;51027;42.162;24.754;2023-11-19T04:11:58;99521.19;;;5.74;80.67
64616;BME280;51027;42.162;24.754;2023-11-19T04:14:24;99554.78;;;5.91;80.12
64616;BME280;51027;42.162;24.754;2023-11-19T04:16:50;99531.78;;;5.66;79.81
64616;BME280;51027;42.162;24.754;2023-11-19T04:19:16;99564.38;;;5.89;80.18
64616;BME280;51027;42.162;24.754;2023-11-19T04:21:42;99566.22;;;5.85;80.12
64616;BME280;51027;42.162;24.754;2023-11-19T04:24:09;99560.19;;;5.82;80.05
64616;BME280;51027;42.162;24.754;2023-11-19T04:26:40;99575.16;;;5.75;79.92
64616;BME280;51027;42.162;24.754;2023-11-19T04:29:09;99574.22;;;5.77;79.84
64616;BME280;51027;42.162;24.754;2023-11-19T04:31:34;99561.28;;;5.73;79.45
64616;BME280;51027;42.162;24.754;2023-11-19T04:34:00;99580.06;;;5.89;79.08
64616;BME280;51027;42.162;24.754;2023-11-19T04:36:25;99561.72;;;5.92;77.50
64616;BME280;51027;42.162;24.754;2023-11-19T04:38:51;99566.72;;;6.02;76.87
64616;BME280;51027;42.162;24.754;2023-11-19T04:41:16;99583.13;;;6.09;76.52
64616;BME280;51027;42.162;24.754;2023-11-19T04:43:42;99588.56;;;6.00;76.72
64616;BME280;51027;42.162;24.754;2023-11-19T04:46:09;99574.78;;;5.93;76.75
64616;BME280;51027;42.162;24.754;2023-11-19T04:48:35;99590.47;;;5.93;76.77
64616;BME280;51027;42.162;24.754;2023-11-19T04:51:00;99533.53;;;5.66;77.68
64616;BME280;51027;42.162;24.754;2023-11-19T04:53:26;99558.66;;;5.73;77.15
64616;BME280;51027;42.162;24.754;2023-11-19T04:55:51;99561.38;;;5.67;77.66
64616;BME280;51027;42.162;24.754;2023-11-19T04:58:17;99546.03;;;5.52;78.02
64616;BME280;51027;42.162;24.754;2023-11-19T05:00:42;99560.75;;;5.56;78.41
64616;BME280;51027;42.162;24.754;2023-11-19T05:03:08;99560.88;;;5.49;79.15
64616;BME280;51027;42.162;24.754;2023-11-19T05:05:33;99554.13;;;5.39;79.65
64616;BME280;51027;42.162;24.754;2023-11-19T05:07:59;99556.72;;;5.39;80.00
64616;BME280;51027;42.162;24.754;2023-11-19T05:10:24;99583.91;;;5.29;80.99
64616;BME280;51027;42.162;24.754;2023-11-19T05:12:51;99578.88;;;5.20;81.88
64616;BME280;51027;42.162;24.754;2023-11-19T05:15:17;99582.56;;;5.08;82.22
64616;BME280;51027;42.162;24.754;2023-11-19T05:17:42;99587.72;;;5.13;82.29
64616;BME280;51027;42.162;24.754;2023-11-19T05:20:08;99569.81;;;4.93;82.59
64616;BME280;51027;42.162;24.754;2023-11-19T05:22:40;99583.59;;;5.00;82.29
64616;BME280;51027;42.162;24.754;2023-11-19T05:25:06;99592.09;;;5.12;81.97
64616;BME280;51027;42.162;24.754;2023-11-19T05:27:31;99599.03;;;5.13;81.81
64616;BME280;51027;42.162;24.754;2023-11-19T05:29:57;99602.56;;;5.11;81.46
64616;BME280;51027;42.162;24.754;2023-11-19T05:32:22;99617.97;;;5.25;80.86
64616;BME280;51027;42.162;24.754;2023-11-19T05:34:48;99610.34;;;5.14;80.84
64616;BME280;51027;42.162;24.754;2023-11-19T05:37:13;99611.03;;;5.24;80.70
64616;BME280;51027;42.162;24.754;2023-11-19T05:39:39;99612.53;;;5.35;80.36
64616;BME280;51027;42.162;24.754;2023-11-19T05:42:05;99592.66;;;5.28;80.54
64616;BME280;51027;42.162;24.754;2023-11-19T05:44:30;99615.22;;;5.32;80.62
64616;BME280;51027;42.162;24.754;2023-11-19T05:46:56;99616.22;;;5.25;80.99
64616;BME280;51027;42.162;24.754;2023-11-19T05:49:21;99605.81;;;5.24;81.12
64616;BME280;51027;42.162;24.754;2023-11-19T05:51:47;99609.19;;;5.27;81.30
64616;BME280;51027;42.162;24.754;2023-11-19T05:54:12;99605.53;;;5.37;81.02
64616;BME280;51027;42.162;24.754;2023-11-19T05:56:38;99611.03;;;5.24;81.46
64616;BME280;51027;42.162;24.754;2023-11-19T05:59:04;99620.59;;;5.23;81.25
64616;BME280;51027;42.162;24.754;2023-11-19T06:01:34;99632.44;;;5.42;81.28
64616;BME280;51027;42.162;24.754;2023-11-19T06:03:59;99616.75;;;5.41;80.97
64616;BME280;51027;42.162;24.754;2023-11-19T06:06:26;99621.91;;;5.45;80.59
64616;BME280;51027;42.162;24.754;2023-11-19T06:08:52;99616.91;;;5.35;80.33
64616;BME280;51027;42.162;24.754;2023-11-19T06:11:17;99635.69;;;5.54;80.13
64616;BME280;51027;42.162;24.754;2023-11-19T06:13:45;99639.25;;;5.48;80.36
64616;BME280;51027;42.162;24.754;2023-11-19T06:16:11;99614.97;;;5.44;79.71
64616;BME280;51027;42.162;24.754;2023-11-19T06:18:37;99626.59;;;5.71;78.95
64616;BME280;51027;42.162;24.754;2023-11-19T06:21:03;99631.97;;;5.65;78.77
64616;BME280;51027;42.162;24.754;2023-11-19T06:23:28;99631.75;;;5.76;78.29
64616;BME280;51027;42.162;24.754;2023-11-19T06:25:54;99631.59;;;5.82;78.23
64616;BME280;51027;42.162;24.754;2023-11-19T06:28:19;99630.75;;;5.82;77.87
64616;BME280;51027;42.162;24.754;2023-11-19T06:30:45;99629.53;;;5.99;77.65
64616;BME280;51027;42.162;24.754;2023-11-19T06:33:14;99636.44;;;6.03;77.25
64616;BME280;51027;42.162;24.754;2023-11-19T06:35:39;99630.38;;;6.00;77.00
64616;BME280;51027;42.162;24.754;2023-11-19T06:38:05;99646.66;;;6.13;76.56
64616;BME280;51027;42.162;24.754;2023-11-19T06:40:32;99668.34;;;6.18;76.29
64616;BME280;51027;42.162;24.754;2023-11-19T06:42:58;99659.53;;;6.23;76.14
64616;BME280;51027;42.162;24.754;2023-11-19T06:45:23;99647.31;;;6.24;75.78
64616;BME280;51027;42.162;24.754;2023-11-19T06:47:49;99653.06;;;6.38;75.51
64616;BME280;51027;42.162;24.754;2023-11-19T06:50:15;99684.63;;;6.30;75.37
64616;BME280;51027;42.162;24.754;2023-11-19T06:52:44;99660.97;;;6.37;75.40
64616;BME280;51027;42.162;24.754;2023-11-19T06:55:10;99662.56;;;6.44;74.70
64616;BME280;51027;42.162;24.754;2023-11-19T06:57:36;99622.63;;;6.35;74.67
64616;BME280;51027;42.162;24.754;2023-11-19T07:00:02;99663.69;;;6.69;74.42
64616;BME280;51027;42.162;24.754;2023-11-19T07:02:28;99667.81;;;6.79;73.66
64616;BME280;51027;42.162;24.754;2023-11-19T07:04:53;99666.84;;;6.82;73.71
64616;BME280;51027;42.162;24.754;2023-11-19T07:07:19;99670.88;;;6.97;73.39
64616;BME280;51027;42.162;24.754;2023-11-19T07:09:45;99679.59;;;6.97;72.74
64616;BME280;51027;42.162;24.754;2023-11-19T07:12:10;99664.78;;;6.96;72.29
64616;BME280;51027;42.162;24.754;2023-11-19T07:14:36;99657.38;;;7.12;72.21
64616;BME280;51027;42.162;24.754;2023-11-19T07:17:01;99664.97;;;7.22;71.82
64616;BME280;51027;42.162;24.754;2023-11-19T07:19:27;99644.09;;;7.19;71.54
64616;BME280;51027;42.162;24.754;2023-11-19T07:21:52;99638.09;;;7.16;71.42
64616;BME280;51027;42.162;24.754;2023-11-19T07:24:20;99644.13;;;7.18;71.08
64616;BME280;51027;42.162;24.754;2023-11-19T07:26:47;99661.38;;;7.25;70.87
64616;BME280;51027;42.162;24.754;2023-11-19T07:29:13;99670.72;;;7.35;70.46
64616;BME280;51027;42.162;24.754;2023-11-19T07:31:40;99715.84;;;7.48;69.83
64616;BME280;51027;42.162;24.754;2023-11-19T07:34:05;99715.66;;;7.54;69.33
64616;BME280;51027;42.162;24.754;2023-11-19T07:36:32;99732.56;;;7.75;68.24
64616;BME280;51027;42.162;24.754;2023-11-19T07:38:58;99735.84;;;8.14;67.15
64616;BME280;51027;42.162;24.754;2023-11-19T07:41:24;99739.81;;;7.98;66.74
64616;BME280;51027;42.162;24.754;2023-11-19T07:43:50;99726.59;;;8.32;65.77
64616;BME280;51027;42.162;24.754;2023-11-19T07:46:17;99723.81;;;8.66;64.61
64616;BME280;51027;42.162;24.754;2023-11-19T07:48:45;99731.00;;;8.89;63.46
64616;BME280;51027;42.162;24.754;2023-11-19T07:51:12;99728.97;;;8.97;63.51
64616;BME280;51027;42.162;24.754;2023-11-19T07:53:39;99713.19;;;8.43;64.15
64616;BME280;51027;42.162;24.754;2023-11-19T07:56:05;99705.59;;;8.32;63.94
64616;BME280;51027;42.162;24.754;2023-11-19T07:58:30;99736.34;;;8.86;63.00
64616;BME280;51027;42.162;24.754;2023-11-19T08:00:56;99723.88;;;8.64;63.90
64616;BME280;51027;42.162;24.754;2023-11-19T08:03:21;99715.53;;;9.06;62.70
64616;BME280;51027;42.162;24.754;2023-11-19T08:05:47;99710.69;;;8.94;62.84
64616;BME280;51027;42.162;24.754;2023-11-19T08:08:13;99706.44;;;9.68;61.19
64616;BME280;51027;42.162;24.754;2023-11-19T08:10:40;99725.50;;;9.74;60.36
64616;BME280;51027;42.162;24.754;2023-11-19T08:13:05;99719.09;;;10.30;58.28
64616;BME280;51027;42.162;24.754;2023-11-19T08:15:31;99705.94;;;11.60;54.02
64616;BME280;51027;42.162;24.754;2023-11-19T08:17:57;99725.84;;;10.82;56.28
64616;BME280;51027;42.162;24.754;2023-11-19T08:20:22;99735.72;;;10.07;57.94
64616;BME280;51027;42.162;24.754;2023-11-19T08:22:49;99731.09;;;9.39;59.32
64616;BME280;51027;42.162;24.754;2023-11-19T08:25:14;99713.97;;;9.27;60.24
64616;BME280;51027;42.162;24.754;2023-11-19T08:27:40;99736.41;;;9.64;59.29
64616;BME280;51027;42.162;24.754;2023-11-19T08:30:05;99737.78;;;9.22;60.42
64616;BME280;51027;42.162;24.754;2023-11-19T08:32:32;99727.03;;;8.76;60.83
64616;BME280;51027;42.162;24.754;2023-11-19T08:34:57;99724.84;;;8.90;61.18
64616;BME280;51027;42.162;24.754;2023-11-19T08:37:23;99721.88;;;8.73;61.96
64616;BME280;51027;42.162;24.754;2023-11-19T08:39:49;99732.91;;;9.12;61.09
64616;BME280;51027;42.162;24.754;2023-11-19T08:42:14;99729.75;;;9.01;62.09
64616;BME280;51027;42.162;24.754;2023-11-19T08:44:41;99738.38;;;9.57;60.83
64616;BME280;51027;42.162;24.754;2023-11-19T08:47:10;99731.41;;;9.03;61.10
64616;BME280;51027;42.162;24.754;2023-11-19T08:49:36;99756.53;;;9.38;61.41
64616;BME280;51027;42.162;24.754;2023-11-19T08:52:01;99757.31;;;9.42;60.43
64616;BME280;51027;42.162;24.754;2023-11-19T08:54:27;99748.16;;;9.01;60.73
64616;BME280;51027;42.162;24.754;2023-11-19T08:56:52;99763.56;;;9.38;60.49
64616;BME280;51027;42.162;24.754;2023-11-19T08:59:18;99747.38;;;8.97;60.57
64616;BME280;51027;42.162;24.754;2023-11-19T09:01:44;99762.34;;;9.48;59.20
64616;BME280;51027;42.162;24.754;2023-11-19T09:04:10;99791.31;;;9.73;58.76
64616;BME280;51027;42.162;24.754;2023-11-19T09:06:36;99787.44;;;10.08;57.19
64616;BME280;51027;42.162;24.754;2023-11-19T09:09:02;99753.22;;;10.56;55.66
64616;BME280;51027;42.162;24.754;2023-11-19T09:11:31;99786.44;;;10.12;56.92
64616;BME280;51027;42.162;24.754;2023-11-19T09:13:57;99784.69;;;11.48;53.14
64616;BME280;51027;42.162;24.754;2023-11-19T09:16:22;99778.03;;;10.01;56.28
64616;BME280;51027;42.162;24.754;2023-11-19T09:18:48;99769.41;;;10.69;55.16
64616;BME280;51027;42.162;24.754;2023-11-19T09:21:13;99775.22;;;9.82;55.96
64616;BME280;51027;42.162;24.754;2023-11-19T09:23:39;99761.22;;;9.80;56.17
64616;BME280;51027;42.162;24.754;2023-11-19T09:26:05;99775.03;;;12.10;53.33
64616;BME280;51027;42.162;24.754;2023-11-19T09:28:31;99774.00;;;12.33;50.61
64616;BME280;51027;42.162;24.754;2023-11-19T09:30:57;99744.03;;;11.32;52.35
64616;BME280;51027;42.162;24.754;2023-11-19T09:33:24;99707.53;;;11.01;52.25
64616;BME280;51027;42.162;24.754;2023-11-19T09:35:49;99735.47;;;12.29;50.46
64616;BME280;51027;42.162;24.754;2023-11-19T09:38:16;99748.31;;;12.74;49.16
64616;BME280;51027;42.162;24.754;2023-11-19T09:40:42;99741.81;;;12.44;50.78
64616;BME280;51027;42.162;24.754;2023-11-19T09:43:07;99736.94;;;11.34;51.01
64616;BME280;51027;42.162;24.754;2023-11-19T09:45:47;99783.78;;;10.84;53.55
64616;BME280;51027;42.162;24.754;2023-11-19T09:48:16;99660.06;;;10.14;52.88
64616;BME280;51027;42.162;24.754;2023-11-19T09:50:42;99753.44;;;10.27;54.56
64616;BME280;51027;42.162;24.754;2023-11-19T09:53:07;99764.53;;;10.10;55.15
64616;BME280;51027;42.162;24.754;2023-11-19T09:55:33;99767.59;;;10.48;54.61
64616;BME280;51027;42.162;24.754;2023-11-19T09:58:00;99770.72;;;10.57;53.70
64616;BME280;51027;42.162;24.754;2023-11-19T10:00:27;99773.31;;;11.04;52.79
64616;BME280;51027;42.162;24.754;2023-11-19T10:02:53;99766.69;;;10.94;52.79
64616;BME280;51027;42.162;24.754;2023-11-19T10:05:20;99765.06;;;10.90;52.75
64616;BME280;51027;42.162;24.754;2023-11-19T10:07:47;99782.28;;;11.42;51.89
64616;BME280;51027;42.162;24.754;2023-11-19T10:10:12;99767.19;;;12.48;50.65
64616;BME280;51027;42.162;24.754;2023-11-19T10:12:53;99761.56;;;15.12;44.17
64616;BME280;51027;42.162;24.754;2023-11-19T10:15:23;99763.19;;;18.61;37.42
64616;BME280;51027;42.162;24.754;2023-11-19T10:17:58;99756.38;;;21.35;32.24
64616;BME280;51027;42.162;24.754;2023-11-19T10:20:24;99742.13;;;16.46;38.07
64616;BME280;51027;42.162;24.754;2023-11-19T10:22:55;99744.78;;;18.20;36.07
64616;BME280;51027;42.162;24.754;2023-11-19T10:25:24;99744.47;;;12.81;43.74
64616;BME280;51027;42.162;24.754;2023-11-19T10:27:51;99744.63;;;12.78;45.91
64616;BME280;51027;42.162;24.754;2023-11-19T10:30:27;99755.22;;;15.30;40.69
64616;BME280;51027;42.162;24.754;2023-11-19T10:33:14;99725.00;;;10.82;49.67
64616;BME280;51027;42.162;24.754;2023-11-19T10:35:55;99732.53;;;11.13;49.49
64616;BME280;51027;42.162;24.754;2023-11-19T10:38:24;99713.47;;;10.62;50.43
64616;BME280;51027;42.162;24.754;2023-11-19T10:40:51;99706.06;;;10.27;51.86
64616;BME280;51027;42.162;24.754;2023-11-19T10:43:20;99714.91;;;10.48;52.13
64616;BME280;51027;42.162;24.754;2023-11-19T10:45:50;99710.03;;;10.60;51.84
64616;BME280;51027;42.162;24.754;2023-11-19T10:48:16;99689.31;;;10.51;52.28
64616;BME280;51027;42.162;24.754;2023-11-19T10:50:44;99689.72;;;10.86;51.35
64616;BME280;51027;42.162;24.754;2023-11-19T10:53:12;99699.03;;;10.94;51.49
64616;BME280;51027;42.162;24.754;2023-11-19T10:55:41;99703.44;;;11.57;50.10
64616;BME280;51027;42.162;24.754;2023-11-19T10:58:08;99699.66;;;11.21;49.77
64616;BME280;51027;42.162;24.754;2023-11-19T11:00:54;99713.41;;;11.50;49.41
64616;BME280;51027;42.162;24.754;2023-11-19T11:03:24;99712.06;;;11.40;49.16
64616;BME280;51027;42.162;24.754;2023-11-19T11:05:51;99692.28;;;12.30;47.03
64616;BME280;51027;42.162;24.754;2023-11-19T11:08:18;99695.69;;;12.32;47.27
64616;BME280;51027;42.162;24.754;2023-11-19T11:10:54;99721.34;;;13.40;44.38
64616;BME280;51027;42.162;24.754;2023-11-19T11:13:22;99704.25;;;12.75;46.72
64616;BME280;51027;42.162;24.754;2023-11-19T11:15:50;99717.88;;;10.15;50.52
64616;BME280;51027;42.162;24.754;2023-11-19T11:18:16;99716.56;;;9.78;52.57
64616;BME280;51027;42.162;24.754;2023-11-19T11:20:45;99719.53;;;10.18;52.47
64616;BME280;51027;42.162;24.754;2023-11-19T11:26:35;99703.94;;;9.88;52.62
64616;BME280;51027;42.162;24.754;2023-11-19T11:31:49;99684.66;;;9.64;53.12
64616;BME280;51027;42.162;24.754;2023-11-19T11:39:34;99664.50;;;9.88;53.35
64616;BME280;51027;42.162;24.754;2023-11-19T11:45:11;99660.75;;;9.70;53.60
64616;BME280;51027;42.162;24.754;2023-11-19T11:50:11;99660.81;;;9.69;53.16
64616;BME280;51027;42.162;24.754;2023-11-19T11:56:06;99636.59;;;9.61;53.18
64616;BME280;51027;42.162;24.754;2023-11-19T11:58:12;99628.31;;;9.71;53.45
64616;BME280;51027;42.162;24.754;2023-11-19T12:00:40;99629.97;;;9.74;53.37
64616;BME280;51027;42.162;24.754;2023-11-19T12:03:07;99617.53;;;9.54;53.80
64616;BME280;51027;42.162;24.754;2023-11-19T12:05:38;99591.66;;;9.67;53.16
64616;BME280;51027;42.162;24.754;2023-11-19T12:08:05;99603.47;;;9.78;53.02
64616;BME280;51027;42.162;24.754;2023-11-19T12:10:36;99604.47;;;9.76;53.63
64616;BME280;51027;42.162;24.754;2023-11-19T12:13:05;99633.16;;;10.05;52.33
64616;BME280;51027;42.162;24.754;2023-11-19T12:15:33;99604.47;;;9.76;52.66
64616;BME280;51027;42.162;24.754;2023-11-19T12:17:58;99640.59;;;9.94;52.54
64616;BME280;51027;42.162;24.754;2023-11-19T12:20:25;99632.25;;;9.83;52.83
64616;BME280;51027;42.162;24.754;2023-11-19T12:22:52;99615.03;;;9.74;52.66
64616;BME280;51027;42.162;24.754;2023-11-19T12:25:19;99587.00;;;9.50;52.98
64616;BME280;51027;42.162;24.754;2023-11-19T12:27:50;99539.28;;;9.37;52.87
64616;BME280;51027;42.162;24.754;2023-11-19T12:30:25;99616.56;;;9.80;52.87
64616;BME280;51027;42.162;24.754;2023-11-19T12:32:52;99618.50;;;9.98;52.76
64616;BME280;51027;42.162;24.754;2023-11-19T12:35:19;99603.47;;;9.78;53.29
64616;BME280;51027;42.162;24.754;2023-11-19T12:37:48;99602.63;;;9.78;52.91
64616;BME280;51027;42.162;24.754;2023-11-19T12:40:22;99601.06;;;9.96;52.84
64616;BME280;51027;42.162;24.754;2023-11-19T12:42:52;99578.06;;;10.01;52.76
64616;BME280;51027;42.162;24.754;2023-11-19T12:45:18;99608.25;;;9.92;53.25
64616;BME280;51027;42.162;24.754;2023-11-19T12:47:46;99593.91;;;9.99;53.21
64616;BME280;51027;42.162;24.754;2023-11-19T12:50:13;99580.38;;;9.87;53.46
64616;BME280;51027;42.162;24.754;2023-11-19T12:52:39;99586.28;;;10.15;53.09
64616;BME280;51027;42.162;24.754;2023-11-19T12:55:27;99575.16;;;10.32;52.30
64616;BME280;51027;42.162;24.754;2023-11-19T12:57:52;99604.47;;;10.21;52.19
64616;BME280;51027;42.162;24.754;2023-11-19T13:00:21;99595.59;;;10.02;52.75
64616;BME280;51027;42.162;24.754;2023-11-19T13:02:56;99581.81;;;9.95;52.80
64616;BME280;51027;42.162;24.754;2023-11-19T13:05:31;99595.13;;;10.14;52.34
64616;BME280;51027;42.162;24.754;2023-11-19T13:08:08;99585.88;;;10.04;52.91
64616;BME280;51027;42.162;24.754;2023-11-19T13:13:15;99570.59;;;10.35;52.09
64616;BME280;51027;42.162;24.754;2023-11-19T13:15:40;99553.25;;;10.74;50.93
64616;BME280;51027;42.162;24.754;2023-11-19T13:18:06;99525.44;;;10.87;50.84
64616;BME280;51027;42.162;24.754;2023-11-19T13:20:32;99552.38;;;10.51;51.90